Time;durP1;ratioP1;P1;durP2;ratioP2;P2;SDS_P1;SDS_P2;PMS_P1;PMS_P2;Temp;Humidity;BMP_temperature;BMP_pressure;BME280_temperature;BME280_humidity;BME280_pressure;Samples;Min_cycle;Max_cycle;Signal;HPM_P1;HPM_P2
2021/11/04 00:02:20;;;;;;;51.75;24.48;;;;;;;0.92;100.00;100575.41;5034531;28;20524;-80
2021/11/04 00:04:45;;;;;;;36.72;21.15;;;;;;;0.87;100.00;100575.66;5051881;28;20029;-79
2021/11/04 00:07:12;;;;;;;35.15;19.50;;;;;;;0.84;100.00;100567.97;5052225;28;20473;-80
2021/11/04 00:09:39;;;;;;;28.63;15.90;;;;;;;0.80;100.00;100572.50;5052089;28;20056;-80
2021/11/04 00:12:05;;;;;;;39.33;22.02;;;;;;;0.79;100.00;100573.44;5051626;28;20133;-80
2021/11/04 00:14:30;;;;;;;32.92;16.13;;;;;;;0.78;100.00;100568.28;5051997;28;20124;-80
2021/11/04 00:16:56;;;;;;;62.47;27.92;;;;;;;0.80;100.00;100576.91;5033832;28;20496;-79
2021/11/04 00:19:21;;;;;;;63.25;28.17;;;;;;;0.83;100.00;100571.50;5052114;28;20033;-80
2021/11/04 00:21:47;;;;;;;58.97;27.27;;;;;;;0.85;100.00;100575.72;5051593;28;20401;-80
2021/11/04 00:24:12;;;;;;;44.30;22.27;;;;;;;0.85;100.00;100577.47;5052062;28;20033;-80
2021/11/04 00:26:37;;;;;;;50.78;24.67;;;;;;;0.84;100.00;100573.19;5051970;28;20033;-80
2021/11/04 00:29:03;;;;;;;62.30;28.55;;;;;;;0.85;100.00;100577.47;5051384;28;20120;-80
2021/11/04 00:31:28;;;;;;;70.70;29.58;;;;;;;0.82;100.00;100572.41;5052139;28;20105;-80
2021/11/04 00:33:55;;;;;;;50.70;23.77;;;;;;;0.79;100.00;100572.56;5051566;28;20124;-80
2021/11/04 00:36:22;;;;;;;57.28;25.65;;;;;;;0.77;100.00;100577.91;5052064;28;20068;-79
2021/11/04 00:38:47;;;;;;;37.20;20.60;;;;;;;0.73;100.00;100571.13;5051456;28;20033;-79
2021/11/04 00:41:17;;;;;;;56.58;25.75;;;;;;;0.69;100.00;100567.00;5051861;28;20378;-80
2021/11/04 00:43:43;;;;;;;29.42;17.02;;;;;;;0.65;100.00;100575.94;5051848;28;20036;-80
2021/11/04 00:46:10;;;;;;;30.92;17.05;;;;;;;0.58;100.00;100567.56;5051419;28;20077;-81
2021/11/04 00:48:36;;;;;;;30.70;16.80;;;;;;;0.55;100.00;100562.50;5051950;28;20040;-81
2021/11/04 00:51:02;;;;;;;34.22;18.10;;;;;;;0.56;100.00;100564.19;5052723;28;20389;-81
2021/11/04 00:53:27;;;;;;;30.33;17.23;;;;;;;0.55;100.00;100561.66;5037896;28;20119;-82
2021/11/04 00:55:56;;;;;;;43.28;22.27;;;;;;;0.53;100.00;100557.34;5054964;28;20472;-81
2021/11/04 00:58:21;;;;;;;35.17;19.45;;;;;;;0.52;100.00;100567.88;5055478;28;20389;-81
2021/11/04 01:00:47;;;;;;;29.25;15.43;;;;;;;0.50;100.00;100565.34;5055680;28;20025;-81
2021/11/04 01:03:12;;;;;;;35.88;20.52;;;;;;;0.50;100.00;100561.91;5055045;28;20492;-81
2021/11/04 01:05:37;;;;;;;36.97;20.45;;;;;;;0.48;100.00;100561.97;5055258;28;20436;-81
2021/11/04 01:08:03;;;;;;;43.17;21.65;;;;;;;0.44;100.00;100555.22;5054778;28;20060;-81
2021/11/04 01:10:29;;;;;;;60.47;27.52;;;;;;;0.45;100.00;100562.16;5055178;28;20032;-81
2021/11/04 01:12:55;;;;;;;27.40;16.20;;;;;;;0.42;100.00;100557.06;5054801;28;20151;-79
2021/11/04 01:15:21;;;;;;;28.92;16.80;;;;;;;0.41;100.00;100560.59;5037450;28;20087;-80
2021/11/04 01:17:48;;;;;;;30.73;17.10;;;;;;;0.37;100.00;100563.47;5054992;28;20378;-80
2021/11/04 01:20:14;;;;;;;26.73;15.07;;;;;;;0.31;100.00;100560.25;5054733;28;20029;-80
2021/11/04 01:22:40;;;;;;;29.35;15.40;;;;;;;0.29;100.00;100563.88;5055074;28;20044;-81
2021/11/04 01:25:05;;;;;;;26.65;16.33;;;;;;;0.27;100.00;100553.50;5055317;23;20048;-81
2021/11/04 01:27:31;;;;;;;26.38;15.65;;;;;;;0.28;100.00;100556.94;5075004;28;20033;-83
2021/11/04 01:29:56;;;;;;;24.13;15.77;;;;;;;0.25;100.00;100546.63;5056735;28;20024;-80
2021/11/04 01:32:22;;;;;;;21.90;13.88;;;;;;;0.20;100.00;100551.28;5075068;28;20029;-81
2021/11/04 01:34:48;;;;;;;26.70;15.05;;;;;;;0.15;100.00;100544.50;5057132;28;20464;-80
2021/11/04 01:37:13;;;;;;;20.48;14.15;;;;;;;0.15;100.00;100543.63;5074325;28;20029;-80
2021/11/04 01:39:39;;;;;;;31.58;18.50;;;;;;;0.14;100.00;100547.19;5074671;28;20039;-80
2021/11/04 01:42:04;;;;;;;27.02;15.77;;;;;;;0.10;100.00;100546.50;5074130;28;20111;-80
2021/11/04 01:44:30;;;;;;;19.92;14.50;;;;;;;0.03;100.00;100539.03;5074659;28;20041;-81
2021/11/04 01:46:56;;;;;;;16.63;11.75;;;;;;;-0.06;100.00;100545.59;5074510;28;20468;-80
2021/11/04 01:49:22;;;;;;;21.77;14.75;;;;;;;-0.11;100.00;100545.81;5074566;28;20431;-81
2021/11/04 01:51:47;;;;;;;21.05;15.00;;;;;;;-0.13;100.00;100544.22;5074593;28;20033;-81
2021/11/04 01:54:13;;;;;;;27.92;18.02;;;;;;;-0.17;100.00;100542.69;5056166;28;20028;-80
2021/11/04 01:56:39;;;;;;;34.22;18.20;;;;;;;-0.20;100.00;100548.91;5074414;28;20456;-80
2021/11/04 01:59:05;;;;;;;21.80;15.05;;;;;;;-0.24;100.00;100540.38;5074163;28;20036;-80
2021/11/04 02:01:30;;;;;;;20.50;14.95;;;;;;;-0.26;100.00;100549.22;5074603;28;20047;-80
2021/11/04 02:04:07;;;;;;;20.45;14.63;;;;;;;-0.31;100.00;100538.13;5073339;28;20032;-79
2021/11/04 02:06:56;;;;;;;14.50;11.27;;;;;;;-0.35;100.00;100547.91;5074202;28;20031;-79
2021/11/04 02:10:09;;;;;;;17.20;13.27;;;;;;;-0.37;100.00;100541.91;5074263;28;20066;-82
2021/11/04 02:12:50;;;;;;;22.73;16.10;;;;;;;-0.35;100.00;100545.28;5060689;28;20068;-79
2021/11/04 02:15:17;;;;;;;21.90;15.43;;;;;;;-0.35;100.00;100534.84;5073762;28;20046;-82
2021/11/04 02:17:44;;;;;;;18.92;13.93;;;;;;;-0.38;100.00;100540.22;5074108;28;20291;-80
2021/11/04 02:20:14;;;;;;;35.63;17.45;;;;;;;-0.40;100.00;100544.69;5073631;28;20029;-80
2021/11/04 02:22:54;;;;;;;26.02;17.30;;;;;;;-0.37;100.00;100541.91;5073681;28;20360;-80
2021/11/04 02:25:24;;;;;;;32.83;18.90;;;;;;;-0.40;100.00;100539.47;5073225;28;20135;-82
2021/11/04 02:27:53;;;;;;;21.30;14.15;;;;;;;-0.40;100.00;100540.28;5073927;28;20041;-80
2021/11/04 02:30:22;;;;;;;22.77;15.90;;;;;;;-0.40;100.00;100535.06;5073414;28;20058;-79
2021/11/04 02:32:50;;;;;;;19.13;13.27;;;;;;;-0.42;100.00;100534.31;5073907;28;20052;-82
2021/11/04 02:35:16;;;;;;;32.17;19.50;;;;;;;-0.40;100.00;100532.44;5073088;28;20472;-80
2021/11/04 02:37:44;;;;;;;28.27;18.65;;;;;;;-0.42;100.00;100539.53;5073559;28;20063;-82
2021/11/04 02:40:10;;;;;;;39.53;20.92;;;;;;;-0.46;100.00;100530.16;5072980;28;20116;-80
2021/11/04 02:42:38;;;;;;;32.03;20.33;;;;;;;-0.49;100.00;100530.31;5073633;28;20423;-80
2021/11/04 02:45:05;;;;;;;32.80;21.30;;;;;;;-0.50;100.00;100520.75;5073280;28;20032;-80
2021/11/04 02:47:31;;;;;;;24.17;15.35;;;;;;;-0.54;100.00;100525.31;5073668;28;20047;-80
2021/11/04 02:49:57;;;;;;;27.00;18.08;;;;;;;-0.56;100.00;100521.06;5055695;28;20037;-80
2021/11/04 02:52:23;;;;;;;30.33;17.92;;;;;;;-0.61;100.00;100526.53;5072831;28;20033;-79
2021/11/04 02:54:59;;;;;;;25.48;17.05;;;;;;;-0.62;100.00;100524.81;5073247;28;20387;-79
2021/11/04 02:57:25;;;;;;;31.23;20.13;;;;;;;-0.60;100.00;100528.22;5072952;28;20024;-81
2021/11/04 02:59:51;;;;;;;28.75;18.90;;;;;;;-0.60;100.00;100532.59;5073270;28;20060;-80
2021/11/04 03:02:17;;;;;;;26.60;18.15;;;;;;;-0.62;100.00;100531.81;5072781;28;20087;-81
2021/11/04 03:04:42;;;;;;;21.77;14.75;;;;;;;-0.64;100.00;100534.50;5073388;28;20033;-82
2021/11/04 03:07:07;;;;;;;21.58;14.45;;;;;;;-0.64;100.00;100528.41;5072548;28;20039;-79
2021/11/04 03:09:33;;;;;;;19.67;13.48;;;;;;;-0.65;100.00;100539.81;5055316;28;20024;-79
2021/11/04 03:11:59;;;;;;;14.48;11.18;;;;;;;-0.68;100.00;100530.34;5073226;28;20109;-79
2021/11/04 03:14:25;;;;;;;19.25;14.23;;;;;;;-0.66;100.00;100533.72;5053915;28;20032;-81
2021/11/04 03:16:53;;;;;;;18.35;11.52;;;;;;;-0.66;100.00;100535.50;5072976;28;20387;-79
2021/11/04 03:19:21;;;;;;;18.80;12.70;;;;;;;-0.66;100.00;100545.94;5072438;28;20033;-79
2021/11/04 03:21:50;;;;;;;23.13;14.80;;;;;;;-0.62;100.00;100543.09;5072627;28;20480;-79
2021/11/04 03:24:18;;;;;;;21.27;14.23;;;;;;;-0.58;100.00;100547.28;5072310;28;20052;-79
2021/11/04 03:26:48;;;;;;;31.52;20.42;;;;;;;-0.49;100.00;100556.44;5072668;28;20044;-79
2021/11/04 03:29:14;;;;;;;22.95;14.75;;;;;;;-0.38;100.00;100555.91;5072653;28;20041;-79
2021/11/04 03:31:42;;;;;;;21.92;14.65;;;;;;;-0.24;100.00;100558.69;5072872;28;20369;-79
2021/11/04 03:34:09;;;;;;;25.25;16.48;;;;;;;-0.08;100.00;100561.34;5072246;28;20107;-79
2021/11/04 03:36:36;;;;;;;24.65;16.90;;;;;;;0.10;100.00;100556.97;5072574;28;20132;-79
2021/11/04 03:39:04;;;;;;;30.33;18.83;;;;;;;0.28;100.00;100559.56;5072625;28;20093;-80
2021/11/04 03:41:30;;;;;;;32.75;20.45;;;;;;;0.46;100.00;100568.22;5072005;28;20031;-80
2021/11/04 03:43:56;;;;;;;45.60;25.35;;;;;;;0.58;100.00;100561.50;5072624;28;20167;-80
2021/11/04 03:46:22;;;;;;;37.42;22.52;;;;;;;0.67;100.00;100568.84;5072139;28;20115;-80
2021/11/04 03:48:49;;;;;;;38.50;22.80;;;;;;;0.72;100.00;100564.22;5037916;28;20506;-79
2021/11/04 03:51:15;;;;;;;42.08;23.77;;;;;;;0.75;100.00;100558.81;5072018;28;20036;-80
2021/11/04 03:53:41;;;;;;;40.75;23.65;;;;;;;0.77;100.00;100570.03;5072527;28;20154;-80
2021/11/04 03:56:07;;;;;;;42.58;23.27;;;;;;;0.76;100.00;100571.00;5072461;28;20134;-80
2021/11/04 03:58:37;;;;;;;39.10;22.60;;;;;;;0.77;100.00;100567.44;5072319;28;20537;-80
2021/11/04 04:01:03;;;;;;;37.45;21.50;;;;;;;0.80;100.00;100569.03;5072457;28;20028;-80
2021/11/04 04:03:28;;;;;;;34.90;21.25;;;;;;;0.80;100.00;100575.13;5054011;28;20132;-80
2021/11/04 04:06:03;;;;;;;33.58;20.65;;;;;;;0.79;100.00;100580.44;5072238;28;20060;-80
2021/11/04 04:08:30;;;;;;;33.20;19.70;;;;;;;0.74;100.00;100585.94;5071795;28;20486;-80
2021/11/04 04:10:55;;;;;;;31.20;19.58;;;;;;;0.66;100.00;100581.09;5072287;28;20033;-80
2021/11/04 04:13:21;;;;;;;43.30;22.48;;;;;;;0.64;100.00;100580.34;5072190;28;20055;-80
2021/11/04 04:15:46;;;;;;;47.33;23.13;;;;;;;0.63;100.00;100576.03;5072647;28;20024;-80
2021/11/04 04:18:12;;;;;;;41.35;23.02;;;;;;;0.63;100.00;100564.72;5053614;28;20086;-79
2021/11/04 04:20:38;;;;;;;37.65;22.23;;;;;;;0.68;100.00;100570.53;5072207;28;20029;-80
2021/11/04 04:23:04;;;;;;;46.10;24.00;;;;;;;0.79;100.00;100572.56;5072334;28;20416;-79
2021/11/04 04:25:30;;;;;;;47.65;24.40;;;;;;;0.92;100.00;100576.22;5071889;28;20029;-79
2021/11/04 04:27:56;;;;;;;45.45;23.67;;;;;;;1.00;100.00;100574.06;5058433;28;20442;-80
2021/11/04 04:30:22;;;;;;;42.47;22.65;;;;;;;1.08;100.00;100586.72;5075752;28;20449;-80
2021/11/04 04:32:48;;;;;;;44.45;23.60;;;;;;;1.17;100.00;100586.22;5075865;28;20111;-80
2021/11/04 04:35:13;;;;;;;44.80;23.25;;;;;;;1.20;100.00;100580.81;5075707;28;20108;-78
2021/11/04 04:37:38;;;;;;;45.70;22.50;;;;;;;1.27;100.00;100586.56;5076030;28;20063;-81
2021/11/04 04:40:04;;;;;;;42.25;22.67;;;;;;;1.34;100.00;100587.03;5076076;28;20037;-82
2021/11/04 04:42:30;;;;;;;50.58;23.13;;;;;;;1.43;100.00;100585.69;5075390;28;20067;-81
2021/11/04 04:44:55;;;;;;;46.85;24.58;;;;;;;1.48;100.00;100581.00;5075918;28;20428;-81
2021/11/04 04:47:22;;;;;;;43.45;23.20;;;;;;;1.51;100.00;100586.94;5057382;28;20036;-81
2021/11/04 04:49:47;;;;;;;48.30;23.73;;;;;;;1.54;100.00;100588.56;5076004;28;20115;-81
2021/11/04 04:52:13;;;;;;;43.83;22.33;;;;;;;1.52;100.00;100585.16;5075361;28;20127;-77
2021/11/04 04:54:38;;;;;;;42.88;23.17;;;;;;;1.50;100.00;100587.03;5075736;28;20043;-81
2021/11/04 04:57:04;;;;;;;51.72;24.70;;;;;;;1.48;100.00;100588.88;5075534;28;20033;-81
2021/11/04 04:59:30;;;;;;;47.60;24.02;;;;;;;1.46;100.00;100591.59;5075157;28;20040;-82
2021/11/04 05:01:55;;;;;;;44.80;23.52;;;;;;;1.48;100.00;100599.38;5075417;28;20032;-81
2021/11/04 05:04:21;;;;;;;47.03;23.55;;;;;;;1.54;100.00;100601.69;5075559;28;20055;-81
2021/11/04 05:06:46;;;;;;;53.83;24.90;;;;;;;1.61;100.00;100605.63;5075566;28;20071;-81
2021/11/04 05:09:12;;;;;;;50.08;25.83;;;;;;;1.69;100.00;100608.66;5075420;28;20029;-81
2021/11/04 05:11:37;;;;;;;50.35;24.15;;;;;;;1.76;100.00;100604.75;5074881;28;20032;-81
2021/11/04 05:14:03;;;;;;;45.40;23.77;;;;;;;1.85;100.00;100598.16;5075282;28;20461;-81
2021/11/04 05:16:29;;;;;;;53.08;25.05;;;;;;;1.91;100.00;100600.41;5074810;28;20609;-81
2021/11/04 05:18:54;;;;;;;48.30;23.40;;;;;;;2.00;100.00;100606.91;5075331;28;20028;-81
2021/11/04 05:21:19;;;;;;;53.97;25.15;;;;;;;2.09;100.00;100608.97;5057023;28;20064;-81
2021/11/04 05:23:45;;;;;;;47.30;24.58;;;;;;;2.20;100.00;100618.00;5075091;28;20132;-81
2021/11/04 05:26:10;;;;;;;44.88;18.27;;;;;;;2.56;100.00;100625.47;5075274;28;20055;-80
2021/11/04 05:28:36;;;;;;;24.33;12.05;;;;;;;2.86;100.00;100623.69;5074695;28;20323;-80
2021/11/04 05:31:02;;;;;;;27.92;11.45;;;;;;;3.25;100.00;100630.03;5074906;28;20105;-80
2021/11/04 05:33:28;;;;;;;25.60;12.35;;;;;;;3.47;100.00;100635.59;5074330;28;20086;-80
2021/11/04 05:35:53;;;;;;;27.05;12.65;;;;;;;3.60;100.00;100622.50;5074920;28;20480;-79
2021/11/04 05:38:19;;;;;;;23.23;11.90;;;;;;;3.65;100.00;100624.84;5073610;28;20029;-79
2021/11/04 05:40:44;;;;;;;30.10;12.05;;;;;;;3.66;100.00;100618.66;5074987;28;20136;-78
2021/11/04 05:43:10;;;;;;;29.38;12.10;;;;;;;3.68;100.00;100620.22;5074850;28;20465;-79
2021/11/04 05:45:35;;;;;;;20.48;10.07;;;;;;;3.74;100.00;100626.88;5074176;28;20060;-77
2021/11/04 05:48:00;;;;;;;18.48;9.07;;;;;;;3.77;100.00;100618.78;5074954;28;20059;-80
2021/11/04 05:50:26;;;;;;;17.85;8.68;;;;;;;3.75;100.00;100625.94;5074330;28;20129;-80
2021/11/04 05:52:52;;;;;;;15.43;8.02;;;;;;;3.70;100.00;100622.75;5056745;28;20036;-80
2021/11/04 05:55:17;;;;;;;20.50;8.88;;;;;;;3.65;100.00;100624.84;5074565;28;20033;-80
2021/11/04 05:57:43;;;;;;;19.92;8.85;;;;;;;3.61;100.00;100631.22;5073725;28;20033;-81
2021/11/04 06:00:08;;;;;;;21.13;9.85;;;;;;;3.57;100.00;100633.22;5056406;28;20078;-79
2021/11/04 06:02:34;;;;;;;22.23;9.73;;;;;;;3.56;100.00;100636.78;5055702;28;20090;-80
2021/11/04 06:04:59;;;;;;;21.08;9.77;;;;;;;3.56;100.00;100636.78;5074466;28;20082;-78
2021/11/04 06:07:25;;;;;;;20.42;9.57;;;;;;;3.57;100.00;100637.63;5073843;28;20068;-80
2021/11/04 06:09:50;;;;;;;19.95;9.68;;;;;;;3.59;100.00;100639.22;5074185;28;20387;-80
2021/11/04 06:12:16;;;;;;;16.50;9.32;;;;;;;3.58;100.00;100632.28;5074074;28;20456;-80
2021/11/04 06:14:41;;;;;;;23.75;10.07;;;;;;;3.61;100.00;100634.69;5073674;28;20114;-79
2021/11/04 06:17:07;;;;;;;21.85;8.90;;;;;;;3.61;100.00;100637.31;5073941;28;20531;-79
2021/11/04 06:19:32;;;;;;;20.10;8.93;;;;;;;3.64;100.00;100639.78;5073760;28;20025;-79
2021/11/04 06:21:58;;;;;;;21.92;9.05;;;;;;;3.64;100.00;100639.78;5074093;28;20039;-80
2021/11/04 06:24:23;;;;;;;17.05;8.55;;;;;;;3.68;100.00;100643.06;5073590;28;20088;-79
2021/11/04 06:26:49;;;;;;;19.20;8.60;;;;;;;3.69;100.00;100640.31;5069652;28;20420;-81
2021/11/04 06:29:14;;;;;;;17.85;9.00;;;;;;;3.73;100.00;100643.59;5033621;28;20037;-86
2021/11/04 06:31:40;;;;;;;20.33;8.77;;;;;;;3.83;100.00;100649.09;5050360;28;20445;-80
2021/11/04 06:34:05;;;;;;;15.60;9.48;;;;;;;3.92;100.00;100640.59;5033250;28;20203;-77
2021/11/04 06:36:31;;;;;;;18.02;9.27;;;;;;;3.97;100.00;100640.28;5050254;28;20456;-78
2021/11/04 06:38:56;;;;;;;20.38;10.18;;;;;;;4.02;100.00;100643.50;5050420;28;20037;-78
2021/11/04 06:41:22;;;;;;;15.70;7.63;;;;;;;4.08;100.00;100647.50;5050819;28;20027;-77
2021/11/04 06:43:47;;;;;;;17.25;8.55;;;;;;;4.12;100.00;100656.88;5050416;28;20037;-80
2021/11/04 06:46:13;;;;;;;14.85;7.68;;;;;;;4.13;100.00;100659.41;5033124;28;20396;-80
2021/11/04 06:48:43;;;;;;;17.45;8.48;;;;;;;4.16;100.00;100667.09;5050315;28;20110;-80
2021/11/04 06:51:11;;;;;;;12.90;7.00;;;;;;;4.20;100.00;100673.84;5050741;28;20062;-81
2021/11/04 06:53:45;;;;;;;16.00;7.00;;;;;;;4.26;100.00;100666.50;5050056;28;20431;-80
2021/11/04 06:56:12;;;;;;;14.93;6.70;;;;;;;4.32;100.00;100672.19;5050520;28;20428;-80
2021/11/04 06:58:38;;;;;;;15.45;7.15;;;;;;;4.41;100.00;100670.75;5049866;28;20380;-79
2021/11/04 07:01:12;;;;;;;19.92;7.60;;;;;;;4.49;100.00;100670.22;5050671;28;20036;-81
2021/11/04 07:04:07;;;;;;;16.38;7.15;;;;;;;4.53;100.00;100672.53;5049939;28;20083;-83
2021/11/04 07:06:35;;;;;;;18.75;7.95;;;;;;;4.57;100.00;100663.47;5044451;28;20048;-80
2021/11/04 07:09:04;;;;;;;18.02;8.02;;;;;;;4.62;100.00;100670.22;5050304;28;20059;-77
2021/11/04 07:11:34;;;;;;;16.10;8.05;;;;;;;4.66;100.00;100676.97;5050326;28;20039;-81
2021/11/04 07:14:00;;;;;;;24.42;8.10;;;;;;;4.70;100.00;100675.81;5050551;28;20033;-77
2021/11/04 07:16:26;;;;;;;19.35;7.93;;;;;;;4.72;100.00;100682.66;5049924;28;20102;-77
2021/11/04 07:18:55;;;;;;;20.58;7.97;;;;;;;4.77;100.00;100680.56;5049485;28;20040;-78
2021/11/04 07:21:35;;;;;;;20.88;8.27;;;;;;;4.87;100.00;100693.13;5049296;28;20033;-77
2021/11/04 07:24:03;;;;;;;15.20;7.35;;;;;;;4.98;100.00;100695.84;5049902;28;20036;-78
2021/11/04 07:26:35;;;;;;;17.95;7.93;;;;;;;5.12;100.00;100689.63;5049273;28;20072;-78
2021/11/04 07:29:02;;;;;;;16.23;7.53;;;;;;;5.30;100.00;100690.13;5049981;28;20035;-78
2021/11/04 07:31:28;;;;;;;18.42;7.75;;;;;;;5.48;100.00;100690.59;5049494;28;20037;-78
2021/11/04 07:33:54;;;;;;;25.50;7.72;;;;;;;5.67;100.00;100699.84;5049139;28;20512;-78
2021/11/04 07:36:20;;;;;;;10.32;4.20;;;;;;;5.89;100.00;100692.03;5049749;28;20048;-77
2021/11/04 07:38:47;;;;;;;16.17;6.05;;;;;;;6.10;100.00;100702.84;5049113;28;20033;-75
2021/11/04 07:41:14;;;;;;;16.80;4.47;;;;;;;6.27;100.00;100695.47;5050016;28;20040;-78
2021/11/04 07:43:40;;;;;;;17.17;2.80;;;;;;;6.44;100.00;100695.06;5049531;28;20060;-78
2021/11/04 07:46:05;;;;;;;10.48;2.72;;;;;;;6.60;100.00;100691.22;5049707;28;20052;-78
2021/11/04 07:48:31;;;;;;;11.65;2.20;;;;;;;6.70;100.00;100689.56;5032197;28;20071;-75
2021/11/04 07:50:57;;;;;;;15.88;2.05;;;;;;;6.74;100.00;100695.50;5031183;28;20037;-78
2021/11/04 07:53:23;;;;;;;12.05;2.00;;;;;;;6.79;100.00;100688.88;5050089;28;20044;-78
2021/11/04 07:55:49;;;;;;;14.55;1.85;;;;;;;6.81;100.00;100691.41;5049509;28;20066;-77
2021/11/04 07:58:15;;;;;;;10.35;1.92;;;;;;;6.84;100.00;100693.81;5049787;28;20036;-78
2021/11/04 08:00:41;;;;;;;10.88;1.90;;;;;;;6.98;100.00;100698.03;5048617;28;20120;-77
2021/11/04 08:03:07;;;;;;;9.82;2.00;;;;;;;7.08;100.00;100688.41;5049185;28;20563;-78
2021/11/04 08:05:33;;;;;;;12.02;1.42;;;;;;;7.13;100.00;100693.34;5049536;28;20120;-79
2021/11/04 08:07:58;;;;;;;12.40;1.73;;;;;;;7.23;100.00;100694.31;5031435;28;20045;-77
2021/11/04 08:10:24;;;;;;;15.18;2.10;;;;;;;7.32;100.00;100692.75;5049401;28;20047;-77
2021/11/04 08:12:49;;;;;;;18.33;3.30;;;;;;;7.44;100.00;100696.22;5049281;28;20569;-77
2021/11/04 08:15:15;;;;;;;13.75;2.22;;;;;;;7.53;100.00;100693.66;5049150;28;20393;-78
2021/11/04 08:17:40;;;;;;;12.48;1.60;;;;;;;7.65;100.00;100691.03;5065589;22;20319;-77
2021/11/04 08:20:08;;;;;;;13.30;1.73;;;;;;;7.80;100.00;100699.53;5041591;22;20054;-78
2021/11/04 08:22:34;;;;;;;8.43;1.70;;;;;;;7.87;100.00;100696.25;5010277;28;20124;-76
2021/11/04 08:25:00;;;;;;;9.35;1.50;;;;;;;7.86;100.00;100705.16;5009491;28;20501;-77
2021/11/04 08:27:25;;;;;;;5.75;1.58;;;;;;;7.86;100.00;100699.84;4975802;28;20037;-77
2021/11/04 08:29:51;;;;;;;6.00;1.30;;;;;;;7.96;100.00;100705.25;4991841;28;20462;-76
2021/11/04 08:32:16;;;;;;;6.28;1.40;;;;;;;7.99;100.00;100706.81;5004989;28;20042;-79
2021/11/04 08:34:42;;;;;;;6.00;1.77;;;;;;;7.97;100.00;100706.09;5009840;28;20026;-79
2021/11/04 08:37:09;;;;;;;8.90;1.50;;;;;;;7.93;100.00;100703.69;5012234;28;20030;-78
2021/11/04 08:39:35;;;;;;;8.85;1.73;;;;;;;7.88;100.00;100705.88;5012532;28;20036;-78
2021/11/04 08:42:02;;;;;;;7.70;1.27;;;;;;;7.85;100.00;100710.56;5012013;28;20037;-78
2021/11/04 08:44:28;;;;;;;8.43;1.33;;;;;;;7.82;100.00;100706.38;5012480;28;20041;-78
2021/11/04 08:46:54;;;;;;;6.30;1.70;;;;;;;7.81;100.00;100717.09;5011984;28;20033;-78
2021/11/04 08:49:20;;;;;;;7.95;1.33;;;;;;;7.83;100.00;100712.53;4994612;28;20053;-81
2021/11/04 08:51:45;;;;;;;2.75;1.00;;;;;;;7.84;100.00;100717.69;5011848;28;20113;-79
2021/11/04 08:54:12;;;;;;;6.50;1.10;;;;;;;7.82;100.00;100729.38;5012463;28;20359;-78
2021/11/04 08:56:39;;;;;;;6.00;1.15;;;;;;;7.73;100.00;100750.34;4994708;28;20414;-79
2021/11/04 08:59:05;;;;;;;13.90;1.75;;;;;;;7.57;100.00;100734.84;5011634;28;20034;-79
2021/11/04 09:01:33;;;;;;;7.55;1.48;;;;;;;7.43;100.00;100740.38;5012238;28;20551;-80
2021/11/04 09:03:58;;;;;;;9.05;1.25;;;;;;;7.31;100.00;100747.47;5011662;28;20069;-78
2021/11/04 09:06:24;;;;;;;11.77;1.52;;;;;;;7.22;100.00;100756.13;5012046;28;20092;-79
2021/11/04 09:08:50;;;;;;;11.55;2.00;;;;;;;7.15;100.00;100754.91;5011582;28;20038;-80
2021/11/04 09:11:15;;;;;;;11.00;1.73;;;;;;;7.11;100.00;100761.44;5012054;28;20037;-79
2021/11/04 09:13:41;;;;;;;5.70;1.40;;;;;;;7.06;100.00;100749.41;5014338;28;20560;-80
2021/11/04 09:16:06;;;;;;;10.98;1.60;;;;;;;7.02;100.00;100760.34;5015152;28;20478;-81
2021/11/04 09:18:32;;;;;;;6.55;1.35;;;;;;;6.95;100.00;100753.81;5015260;28;20038;-79
2021/11/04 09:20:57;;;;;;;10.43;1.27;;;;;;;6.82;100.00;100745.97;5014088;28;20101;-78
2021/11/04 09:23:22;;;;;;;4.72;1.20;;;;;;;6.74;100.00;100751.84;4993384;28;20089;-77
2021/11/04 09:25:48;;;;;;;6.53;1.17;;;;;;;6.66;100.00;100735.75;5003190;28;20100;-75
2021/11/04 09:28:13;;;;;;;16.50;2.00;;;;;;;6.60;100.00;100741.47;4982494;28;20034;-78
2021/11/04 09:30:41;;;;;;;6.07;1.30;;;;;;;6.52;100.00;100740.25;4993909;28;20038;-83
2021/11/04 09:33:07;;;;;;;6.95;1.50;;;;;;;6.48;100.00;100727.41;4995139;28;20081;-83
2021/11/04 09:35:35;;;;;;;8.18;1.15;;;;;;;6.43;100.00;100724.25;4994484;28;20038;-77
2021/11/04 09:38:00;;;;;;;8.43;1.30;;;;;;;6.38;100.00;100719.31;4995050;28;20031;-76
2021/11/04 09:40:27;;;;;;;11.00;1.40;;;;;;;6.34;100.00;100723.13;4995456;28;20089;-76
2021/11/04 09:42:53;;;;;;;7.50;2.22;;;;;;;6.34;100.00;100723.13;4994957;28;20038;-80
2021/11/04 09:45:19;;;;;;;3.33;1.30;;;;;;;6.35;100.00;100730.94;4995414;28;20030;-81
2021/11/04 09:47:44;;;;;;;6.25;1.30;;;;;;;6.39;100.00;100733.34;4977740;28;20426;-80
2021/11/04 09:50:14;;;;;;;6.45;1.70;;;;;;;6.40;100.00;100730.59;4993889;28;20036;-81
2021/11/04 09:52:42;;;;;;;10.02;1.58;;;;;;;6.44;100.00;100729.41;4995545;28;20031;-80
2021/11/04 09:55:13;;;;;;;5.65;1.83;;;;;;;6.47;100.00;100729.19;4995011;28;20097;-80
2021/11/04 09:57:41;;;;;;;12.00;1.98;;;;;;;6.55;100.00;100733.88;4994134;28;20071;-79
2021/11/04 10:00:08;;;;;;;8.45;2.13;;;;;;;6.62;100.00;100739.56;4994601;28;20058;-77
2021/11/04 10:02:33;;;;;;;5.03;1.85;;;;;;;6.69;100.00;100743.44;4995217;28;20057;-80
2021/11/04 10:05:10;;;;;;;12.35;2.10;;;;;;;6.76;100.00;100738.50;4994644;28;20459;-81
2021/11/04 10:07:48;;;;;;;11.43;2.15;;;;;;;6.81;100.00;100741.66;4995114;28;20032;-81
2021/11/04 10:10:19;;;;;;;11.27;2.47;;;;;;;6.87;100.00;100746.47;4977497;28;20061;-81
2021/11/04 10:13:07;;;;;;;;;;;;;;;6.96;100.00;100747.59;4995334;28;20490;-81
2021/11/04 10:15:38;;;;;;;11.40;1.70;;;;;;;7.01;100.00;100750.69;4994971;28;19920;-80
2021/11/04 10:18:21;;;;;;;7.82;1.90;;;;;;;7.09;100.00;100758.03;4993169;28;20057;-75
2021/11/04 10:21:03;;;;;;;11.68;2.10;;;;;;;7.14;100.00;100761.19;4994790;28;20046;-77
2021/11/04 10:23:41;;;;;;;9.70;2.13;;;;;;;7.16;100.00;100768.03;4994727;28;20040;-79
2021/11/04 10:26:13;;;;;;;15.75;2.00;;;;;;;7.21;100.00;100765.88;4994475;28;20146;-82
2021/11/04 10:28:40;;;;;;;9.00;2.00;;;;;;;7.33;100.00;100763.22;4994737;28;20031;-77
2021/11/04 10:31:10;;;;;;;8.40;1.70;;;;;;;7.52;100.00;100760.81;4994094;28;20121;-77
2021/11/04 10:33:41;;;;;;;9.02;1.55;;;;;;;7.70;100.00;100768.28;4994140;28;20022;-78
2021/11/04 10:36:14;;;;;;;7.85;1.80;;;;;;;7.90;100.00;100772.81;4994277;28;20027;-80
2021/11/04 10:38:47;;;;;;;7.53;1.15;;;;;;;8.06;100.00;100767.13;4994588;28;20037;-78
2021/11/04 10:41:48;;;;;;;5.28;1.05;;;;;;;8.19;100.00;100759.00;4994061;28;20042;-75
2021/11/04 10:44:19;;;;;;;4.88;0.75;;;;;;;8.31;100.00;100765.13;4880570;29;20040;-78
2021/11/04 10:46:48;;;;;;;4.82;1.00;;;;;;;8.42;100.00;100762.44;4977889;28;20038;-82
2021/11/04 10:49:15;;;;;;;4.30;1.23;;;;;;;8.53;100.00;100764.22;4992610;28;20340;-81
2021/11/04 10:51:41;;;;;;;2.53;0.85;;;;;;;8.61;100.00;100759.13;4994291;28;20038;-82
2021/11/04 10:54:11;;;;;;;2.85;0.90;;;;;;;8.68;100.00;100759.44;4992515;28;20097;-78
2021/11/04 10:56:42;;;;;;;9.37;1.33;;;;;;;8.77;100.00;100755.19;4992834;28;20058;-80
2021/11/04 10:59:16;;;;;;;5.45;0.90;;;;;;;8.88;100.00;100764.88;4993770;28;20041;-77
2021/11/04 11:01:45;;;;;;;3.42;0.88;;;;;;;8.93;98.37;100760.03;4994250;28;20030;-82
2021/11/04 11:04:19;;;;;;;7.97;0.93;;;;;;;9.00;98.13;100771.78;4993536;28;20089;-76
2021/11/04 11:06:50;;;;;;;5.63;0.60;;;;;;;9.09;95.93;100773.69;4994075;28;20478;-80
2021/11/04 11:09:21;;;;;;;13.85;1.40;;;;;;;9.16;96.24;100787.25;4993562;28;20539;-78
2021/11/04 11:11:49;;;;;;;4.60;0.50;;;;;;;9.16;94.10;100780.13;4994425;28;20030;-77
2021/11/04 11:14:15;;;;;;;2.88;0.70;;;;;;;9.27;96.12;100781.03;4993428;28;20038;-82
2021/11/04 11:16:58;;;;;;;8.18;0.60;;;;;;;9.35;94.96;100787.38;4993819;28;20509;-82